sensor_id;sensor_type;location;lat;lon;timestamp;noise_LAeq;noise_LA_min;noise_LA_max;noise_LA01;noise_LA95
43385;Laerm;28988;48.042;7.584;2023-04-03T00:00:21;90.13;-16.02;98.60;;
43385;Laerm;28988;48.042;7.584;2023-04-03T00:02:47;90.13;-17.33;98.60;;
43385;Laerm;28988;48.042;7.584;2023-04-03T00:05:12;90.13;-17.33;98.60;;
43385;Laerm;28988;48.042;7.584;2023-04-03T00:07:37;90.13;-16.02;98.60;;
43385;Laerm;28988;48.042;7.584;2023-04-03T00:10:02;90.13;-42.24;98.60;;
43385;Laerm;28988;48.042;7.584;2023-04-03T00:12:28;90.14;-14.85;98.60;;
43385;Laerm;28988;48.042;7.584;2023-04-03T00:14:53;90.13;-14.85;98.60;;
43385;Laerm;28988;48.042;7.584;2023-04-03T00:17:18;90.14;-22.78;98.60;;
43385;Laerm;28988;48.042;7.584;2023-04-03T00:19:43;90.13;-37.56;98.60;;
43385;Laerm;28988;48.042;7.584;2023-04-03T00:22:08;90.13;-15.25;98.60;;
43385;Laerm;28988;48.042;7.584;2023-04-03T00:24:33;90.14;-37.56;98.60;;
43385;Laerm;28988;48.042;7.584;2023-04-03T00:26:59;90.13;-21.54;98.60;;
43385;Laerm;28988;48.042;7.584;2023-04-03T00:29:24;90.13;-20.19;98.60;;
43385;Laerm;28988;48.042;7.584;2023-04-03T00:31:49;90.13;-37.56;98.60;;
43385;Laerm;28988;48.042;7.584;2023-04-03T00:34:15;90.13;-37.56;98.60;;
43385;Laerm;28988;48.042;7.584;2023-04-03T00:36:40;90.13;-17.33;98.60;;
43385;Laerm;28988;48.042;7.584;2023-04-03T00:39:05;90.14;-14.85;98.60;;
43385;Laerm;28988;48.042;7.584;2023-04-03T00:41:30;90.13;-16.02;98.60;;
43385;Laerm;28988;48.042;7.584;2023-04-03T00:43:56;90.14;-16.02;98.60;;
43385;Laerm;28988;48.042;7.584;2023-04-03T00:46:22;90.13;-17.33;98.60;;
43385;Laerm;28988;48.042;7.584;2023-04-03T00:48:47;90.14;-16.02;98.60;;
43385;Laerm;28988;48.042;7.584;2023-04-03T00:51:14;90.13;-37.56;98.60;;
43385;Laerm;28988;48.042;7.584;2023-04-03T00:53:47;90.13;-12.82;98.60;;
43385;Laerm;28988;48.042;7.584;2023-04-03T00:56:15;90.13;-21.54;98.60;;
43385;Laerm;28988;48.042;7.584;2023-04-03T00:58:52;90.13;-42.24;98.60;;
43385;Laerm;28988;48.042;7.584;2023-04-03T01:01:18;90.14;-37.56;98.60;;
43385;Laerm;28988;48.042;7.584;2023-04-03T01:03:45;90.14;-37.56;98.60;;
43385;Laerm;28988;48.042;7.584;2023-04-03T01:06:10;90.13;-36.41;98.60;;
43385;Laerm;28988;48.042;7.584;2023-04-03T01:08:35;90.14;-21.54;98.60;;
43385;Laerm;28988;48.042;7.584;2023-04-03T01:11:01;90.14;-37.56;98.60;;
43385;Laerm;28988;48.042;7.584;2023-04-03T01:13:30;90.14;-14.85;98.60;;
43385;Laerm;28988;48.042;7.584;2023-04-03T01:15:56;90.13;-37.56;98.60;;
43385;Laerm;28988;48.042;7.584;2023-04-03T01:18:24;90.13;-42.24;98.60;;
43385;Laerm;28988;48.042;7.584;2023-04-03T01:26:02;90.13;-37.56;98.60;;
43385;Laerm;28988;48.042;7.584;2023-04-03T01:33:38;90.14;-17.33;98.60;;
43385;Laerm;28988;48.042;7.584;2023-04-03T01:36:04;90.13;-42.24;98.60;;
43385;Laerm;28988;48.042;7.584;2023-04-03T01:38:29;90.13;-37.56;98.60;;
43385;Laerm;28988;48.042;7.584;2023-04-03T01:40:54;90.13;-16.02;98.60;;
43385;Laerm;28988;48.042;7.584;2023-04-03T01:43:20;90.14;-21.54;98.60;;
43385;Laerm;28988;48.042;7.584;2023-04-03T01:45:45;90.13;-37.56;98.60;;
43385;Laerm;28988;48.042;7.584;2023-04-03T01:48:11;90.13;-16.02;98.60;;
43385;Laerm;28988;48.042;7.584;2023-04-03T01:50:36;90.14;-21.54;98.60;;
43385;Laerm;28988;48.042;7.584;2023-04-03T01:53:01;90.14;-37.56;98.60;;
43385;Laerm;28988;48.042;7.584;2023-04-03T01:55:27;90.13;-37.56;98.60;;
43385;Laerm;28988;48.042;7.584;2023-04-03T01:57:52;90.14;-17.33;98.60;;
43385;Laerm;28988;48.042;7.584;2023-04-03T02:00:17;90.14;-42.24;98.60;;
43385;Laerm;28988;48.042;7.584;2023-04-03T02:02:42;90.13;-16.02;98.60;;
43385;Laerm;28988;48.042;7.584;2023-04-03T02:05:08;90.13;-42.24;98.60;;
43385;Laerm;28988;48.042;7.584;2023-04-03T02:07:33;90.14;-21.54;98.60;;
43385;Laerm;28988;48.042;7.584;2023-04-03T02:09:58;90.14;-42.24;98.60;;
43385;Laerm;28988;48.042;7.584;2023-04-03T02:12:23;90.14;-42.24;98.60;;
43385;Laerm;28988;48.042;7.584;2023-04-03T02:14:48;90.13;-21.54;98.60;;
43385;Laerm;28988;48.042;7.584;2023-04-03T02:17:14;90.13;-42.24;98.60;;
43385;Laerm;28988;48.042;7.584;2023-04-03T02:19:39;90.14;-37.56;98.60;;
43385;Laerm;28988;48.042;7.584;2023-04-03T02:22:05;90.14;-16.02;98.60;;
43385;Laerm;28988;48.042;7.584;2023-04-03T02:24:31;90.13;-16.02;98.60;;
43385;Laerm;28988;48.042;7.584;2023-04-03T02:26:56;90.13;-37.56;98.60;;
43385;Laerm;28988;48.042;7.584;2023-04-03T02:29:22;90.14;-17.33;98.60;;
43385;Laerm;28988;48.042;7.584;2023-04-03T02:31:48;90.14;-42.24;98.60;;
43385;Laerm;28988;48.042;7.584;2023-04-03T02:34:13;90.13;-21.54;98.60;;
43385;Laerm;28988;48.042;7.584;2023-04-03T02:36:38;90.14;-37.56;98.60;;
43385;Laerm;28988;48.042;7.584;2023-04-03T02:39:03;90.14;-14.85;98.60;;
43385;Laerm;28988;48.042;7.584;2023-04-03T02:41:29;90.13;-17.33;98.60;;
43385;Laerm;28988;48.042;7.584;2023-04-03T02:43:59;90.13;-14.85;98.60;;
43385;Laerm;28988;48.042;7.584;2023-04-03T02:46:25;90.14;-17.33;98.60;;
43385;Laerm;28988;48.042;7.584;2023-04-03T02:48:50;90.13;-42.24;98.60;;
43385;Laerm;28988;48.042;7.584;2023-04-03T02:51:15;90.14;-16.02;98.60;;
43385;Laerm;28988;48.042;7.584;2023-04-03T02:53:41;90.13;-37.56;98.60;;
43385;Laerm;28988;48.042;7.584;2023-04-03T02:56:06;90.13;-37.56;98.60;;
43385;Laerm;28988;48.042;7.584;2023-04-03T02:58:31;90.13;-16.02;98.60;;
43385;Laerm;28988;48.042;7.584;2023-04-03T03:00:56;90.14;-42.24;98.60;;
43385;Laerm;28988;48.042;7.584;2023-04-03T03:03:21;90.14;-36.41;98.60;;
43385;Laerm;28988;48.042;7.584;2023-04-03T03:05:47;90.13;-16.02;98.60;;
43385;Laerm;28988;48.042;7.584;2023-04-03T03:08:13;90.14;-37.56;98.60;;
43385;Laerm;28988;48.042;7.584;2023-04-03T03:10:38;90.13;-36.41;98.60;;
43385;Laerm;28988;48.042;7.584;2023-04-03T03:13:03;90.14;-37.56;98.60;;
43385;Laerm;28988;48.042;7.584;2023-04-03T03:15:28;90.13;-37.56;98.60;;
43385;Laerm;28988;48.042;7.584;2023-04-03T03:17:53;90.13;-17.33;98.60;;
43385;Laerm;28988;48.042;7.584;2023-04-03T03:20:19;90.14;-16.02;98.60;;
43385;Laerm;28988;48.042;7.584;2023-04-03T03:22:44;90.13;-17.33;98.60;;
43385;Laerm;28988;48.042;7.584;2023-04-03T03:25:10;90.14;-21.54;98.60;;
43385;Laerm;28988;48.042;7.584;2023-04-03T03:27:36;90.14;-37.56;98.60;;
43385;Laerm;28988;48.042;7.584;2023-04-03T03:30:01;90.13;-42.24;98.60;;
43385;Laerm;28988;48.042;7.584;2023-04-03T03:32:26;90.14;-21.54;98.60;;
43385;Laerm;28988;48.042;7.584;2023-04-03T03:34:51;90.14;-37.56;98.60;;
43385;Laerm;28988;48.042;7.584;2023-04-03T03:37:16;90.14;-37.56;98.60;;
43385;Laerm;28988;48.042;7.584;2023-04-03T03:39:42;90.13;-21.54;98.60;;
43385;Laerm;28988;48.042;7.584;2023-04-03T03:42:07;90.14;-17.33;98.60;;
43385;Laerm;28988;48.042;7.584;2023-04-03T03:44:32;90.13;-21.54;98.60;;
43385;Laerm;28988;48.042;7.584;2023-04-03T03:46:57;90.13;-42.24;98.60;;
43385;Laerm;28988;48.042;7.584;2023-04-03T03:49:22;90.14;-16.02;98.60;;
43385;Laerm;28988;48.042;7.584;2023-04-03T03:51:48;90.14;-42.24;98.60;;
43385;Laerm;28988;48.042;7.584;2023-04-03T03:54:13;90.13;-16.02;98.60;;
43385;Laerm;28988;48.042;7.584;2023-04-03T03:56:38;90.14;-42.24;98.60;;
43385;Laerm;28988;48.042;7.584;2023-04-03T03:59:03;90.13;-21.54;98.60;;
43385;Laerm;28988;48.042;7.584;2023-04-03T04:01:29;90.14;-21.54;98.60;;
43385;Laerm;28988;48.042;7.584;2023-04-03T04:03:54;90.13;-21.54;98.60;;
43385;Laerm;28988;48.042;7.584;2023-04-03T04:06:20;90.13;-37.56;98.60;;
43385;Laerm;28988;48.042;7.584;2023-04-03T04:08:46;90.14;-17.33;98.60;;
43385;Laerm;28988;48.042;7.584;2023-04-03T04:11:11;90.14;-21.54;98.60;;
43385;Laerm;28988;48.042;7.584;2023-04-03T04:13:36;90.13;-42.24;98.60;;
43385;Laerm;28988;48.042;7.584;2023-04-03T04:16:01;90.13;-37.56;98.60;;
43385;Laerm;28988;48.042;7.584;2023-04-03T04:18:27;90.13;-21.54;98.60;;
43385;Laerm;28988;48.042;7.584;2023-04-03T04:20:52;90.13;-37.56;98.60;;
43385;Laerm;28988;48.042;7.584;2023-04-03T04:23:17;90.13;-36.41;98.60;;
43385;Laerm;28988;48.042;7.584;2023-04-03T04:25:46;90.14;-42.24;98.60;;
43385;Laerm;28988;48.042;7.584;2023-04-03T04:28:12;90.13;-15.33;98.60;;
43385;Laerm;28988;48.042;7.584;2023-04-03T04:30:37;90.13;-21.54;98.60;;
43385;Laerm;28988;48.042;7.584;2023-04-03T04:33:02;90.14;-37.56;98.60;;
43385;Laerm;28988;48.042;7.584;2023-04-03T04:35:27;90.13;-37.56;98.60;;
43385;Laerm;28988;48.042;7.584;2023-04-03T04:37:53;90.13;-37.56;98.60;;
43385;Laerm;28988;48.042;7.584;2023-04-03T04:40:18;90.14;-21.54;98.60;;
43385;Laerm;28988;48.042;7.584;2023-04-03T04:42:43;90.14;-21.54;98.60;;
43385;Laerm;28988;48.042;7.584;2023-04-03T04:45:08;90.13;-37.56;98.60;;
43385;Laerm;28988;48.042;7.584;2023-04-03T04:47:33;90.14;-36.41;98.60;;
43385;Laerm;28988;48.042;7.584;2023-04-03T04:49:59;90.13;-36.41;98.60;;
43385;Laerm;28988;48.042;7.584;2023-04-03T04:52:24;90.14;-17.33;98.60;;
43385;Laerm;28988;48.042;7.584;2023-04-03T04:54:49;90.14;-37.56;98.60;;
43385;Laerm;28988;48.042;7.584;2023-04-03T04:57:14;90.13;-36.41;98.60;;
43385;Laerm;28988;48.042;7.584;2023-04-03T04:59:40;90.13;-37.56;98.60;;
43385;Laerm;28988;48.042;7.584;2023-04-03T05:02:05;90.13;-37.56;98.60;;
43385;Laerm;28988;48.042;7.584;2023-04-03T05:04:30;90.14;-16.02;98.60;;
43385;Laerm;28988;48.042;7.584;2023-04-03T05:06:56;90.13;-37.56;98.60;;
43385;Laerm;28988;48.042;7.584;2023-04-03T05:09:21;90.13;-21.54;98.60;;
43385;Laerm;28988;48.042;7.584;2023-04-03T05:11:46;90.13;-15.33;98.60;;
43385;Laerm;28988;48.042;7.584;2023-04-03T05:14:11;90.13;-14.66;98.60;;
43385;Laerm;28988;48.042;7.584;2023-04-03T05:16:37;90.14;-17.33;98.60;;
43385;Laerm;28988;48.042;7.584;2023-04-03T05:19:02;90.13;-36.41;98.60;;
43385;Laerm;28988;48.042;7.584;2023-04-03T05:21:27;90.14;-37.56;98.60;;
43385;Laerm;28988;48.042;7.584;2023-04-03T05:23:56;90.13;-16.02;98.60;;
43385;Laerm;28988;48.042;7.584;2023-04-03T05:26:22;90.13;-17.33;98.60;;
43385;Laerm;28988;48.042;7.584;2023-04-03T05:28:47;90.13;-42.24;98.60;;
43385;Laerm;28988;48.042;7.584;2023-04-03T05:31:12;90.14;-37.56;98.60;;
43385;Laerm;28988;48.042;7.584;2023-04-03T05:33:37;90.13;-37.56;98.60;;
43385;Laerm;28988;48.042;7.584;2023-04-03T05:36:03;90.14;-42.24;98.60;;
43385;Laerm;28988;48.042;7.584;2023-04-03T05:38:29;90.13;-16.02;98.60;;
43385;Laerm;28988;48.042;7.584;2023-04-03T05:40:54;90.14;-14.66;98.60;;
43385;Laerm;28988;48.042;7.584;2023-04-03T05:43:19;90.13;-36.41;98.60;;
43385;Laerm;28988;48.042;7.584;2023-04-03T05:45:47;90.14;-14.85;98.60;;
43385;Laerm;28988;48.042;7.584;2023-04-03T05:48:12;90.14;-42.24;98.60;;
43385;Laerm;28988;48.042;7.584;2023-04-03T05:50:37;90.13;-37.56;98.60;;
43385;Laerm;28988;48.042;7.584;2023-04-03T05:53:06;90.13;-42.24;98.60;;
43385;Laerm;28988;48.042;7.584;2023-04-03T05:55:32;90.14;-17.33;98.60;;
43385;Laerm;28988;48.042;7.584;2023-04-03T05:57:57;90.13;-21.54;98.60;;
43385;Laerm;28988;48.042;7.584;2023-04-03T06:00:22;90.14;-37.56;98.60;;
43385;Laerm;28988;48.042;7.584;2023-04-03T06:02:47;90.14;-15.25;98.60;;
43385;Laerm;28988;48.042;7.584;2023-04-03T06:05:12;90.13;-37.56;98.60;;
43385;Laerm;28988;48.042;7.584;2023-04-03T06:07:38;90.13;-14.85;98.60;;
43385;Laerm;28988;48.042;7.584;2023-04-03T06:10:03;90.14;-14.66;98.60;;
43385;Laerm;28988;48.042;7.584;2023-04-03T06:12:29;90.13;-15.25;98.60;;
43385;Laerm;28988;48.042;7.584;2023-04-03T06:14:54;90.13;-37.56;98.60;;
43385;Laerm;28988;48.042;7.584;2023-04-03T06:17:20;90.14;-14.85;98.60;;
43385;Laerm;28988;48.042;7.584;2023-04-03T06:19:45;90.13;-37.56;98.60;;
43385;Laerm;28988;48.042;7.584;2023-04-03T06:22:10;90.14;-37.56;98.60;;
43385;Laerm;28988;48.042;7.584;2023-04-03T06:24:36;90.13;-37.56;98.60;;
43385;Laerm;28988;48.042;7.584;2023-04-03T06:27:02;90.14;-16.02;98.60;;
43385;Laerm;28988;48.042;7.584;2023-04-03T06:29:27;90.14;-17.33;98.60;;
43385;Laerm;28988;48.042;7.584;2023-04-03T06:31:52;90.13;-16.02;98.60;;
43385;Laerm;28988;48.042;7.584;2023-04-03T06:34:17;90.14;-17.33;98.60;;
43385;Laerm;28988;48.042;7.584;2023-04-03T06:36:43;90.14;-16.02;98.60;;
43385;Laerm;28988;48.042;7.584;2023-04-03T06:39:09;90.13;-17.33;98.60;;
43385;Laerm;28988;48.042;7.584;2023-04-03T06:41:36;90.13;-37.56;98.60;;
43385;Laerm;28988;48.042;7.584;2023-04-03T06:44:02;90.13;-22.78;98.60;;
43385;Laerm;28988;48.042;7.584;2023-04-03T06:46:28;90.13;-37.56;98.60;;
43385;Laerm;28988;48.042;7.584;2023-04-03T06:48:53;90.13;-17.33;98.60;;
43385;Laerm;28988;48.042;7.584;2023-04-03T06:51:28;90.13;-36.41;98.60;;
43385;Laerm;28988;48.042;7.584;2023-04-03T06:53:54;90.13;-17.33;98.60;;
43385;Laerm;28988;48.042;7.584;2023-04-03T06:56:20;90.13;-37.56;98.60;;
43385;Laerm;28988;48.042;7.584;2023-04-03T06:58:46;90.13;-16.02;98.60;;
43385;Laerm;28988;48.042;7.584;2023-04-03T07:01:12;90.14;-17.33;98.60;;
43385;Laerm;28988;48.042;7.584;2023-04-03T07:03:38;90.13;-15.33;98.60;;
43385;Laerm;28988;48.042;7.584;2023-04-03T07:06:04;90.13;-17.33;98.60;;
43385;Laerm;28988;48.042;7.584;2023-04-03T07:08:30;90.13;-16.02;98.60;;
43385;Laerm;28988;48.042;7.584;2023-04-03T07:10:55;90.13;-14.85;98.60;;
43385;Laerm;28988;48.042;7.584;2023-04-03T07:13:20;90.13;-14.85;98.60;;
43385;Laerm;28988;48.042;7.584;2023-04-03T07:15:47;90.13;-16.02;98.60;;
43385;Laerm;28988;48.042;7.584;2023-04-03T07:18:13;90.13;-37.56;98.60;;
43385;Laerm;28988;48.042;7.584;2023-04-03T07:20:38;90.14;-22.78;98.60;;
43385;Laerm;28988;48.042;7.584;2023-04-03T07:23:03;90.13;-37.56;98.60;;
43385;Laerm;28988;48.042;7.584;2023-04-03T07:25:29;90.13;-16.02;98.60;;
43385;Laerm;28988;48.042;7.584;2023-04-03T07:27:54;90.13;-17.33;98.60;;
43385;Laerm;28988;48.042;7.584;2023-04-03T07:30:20;90.13;-14.85;98.60;;
43385;Laerm;28988;48.042;7.584;2023-04-03T07:32:45;90.13;-17.33;98.60;;
43385;Laerm;28988;48.042;7.584;2023-04-03T07:35:11;90.13;-14.85;98.60;;
43385;Laerm;28988;48.042;7.584;2023-04-03T07:37:36;90.13;-17.33;98.60;;
43385;Laerm;28988;48.042;7.584;2023-04-03T07:40:01;90.13;-14.85;98.60;;
43385;Laerm;28988;48.042;7.584;2023-04-03T07:42:28;90.13;-21.54;98.60;;
43385;Laerm;28988;48.042;7.584;2023-04-03T07:44:53;90.12;-16.02;98.60;;
43385;Laerm;28988;48.042;7.584;2023-04-03T07:47:19;90.14;-14.85;98.60;;
43385;Laerm;28988;48.042;7.584;2023-04-03T07:49:46;90.13;-16.02;98.60;;
43385;Laerm;28988;48.042;7.584;2023-04-03T07:52:12;90.13;-17.33;98.60;;
43385;Laerm;28988;48.042;7.584;2023-04-03T07:54:37;90.13;-14.85;98.60;;
43385;Laerm;28988;48.042;7.584;2023-04-03T07:57:02;90.13;-17.33;98.60;;
43385;Laerm;28988;48.042;7.584;2023-04-03T07:59:27;90.13;-17.33;98.60;;
43385;Laerm;28988;48.042;7.584;2023-04-03T08:01:53;90.13;-16.02;98.60;;
43385;Laerm;28988;48.042;7.584;2023-04-03T08:04:18;90.13;-17.33;98.60;;
43385;Laerm;28988;48.042;7.584;2023-04-03T08:06:43;90.13;-14.85;98.60;;
43385;Laerm;28988;48.042;7.584;2023-04-03T08:09:08;90.13;-15.68;98.60;;
43385;Laerm;28988;48.042;7.584;2023-04-03T08:11:33;90.13;-14.85;98.60;;
43385;Laerm;28988;48.042;7.584;2023-04-03T08:13:59;90.13;-17.33;98.60;;
43385;Laerm;28988;48.042;7.584;2023-04-03T08:16:24;90.13;-36.41;98.66;;
43385;Laerm;28988;48.042;7.584;2023-04-03T08:18:52;90.13;-22.78;98.60;;
43385;Laerm;28988;48.042;7.584;2023-04-03T08:21:17;90.12;-14.66;98.66;;
43385;Laerm;28988;48.042;7.584;2023-04-03T08:23:43;90.13;-14.85;98.66;;
43385;Laerm;28988;48.042;7.584;2023-04-03T08:26:12;90.13;-14.85;98.60;;
43385;Laerm;28988;48.042;7.584;2023-04-03T08:28:38;90.13;-36.41;98.60;;
43385;Laerm;28988;48.042;7.584;2023-04-03T08:31:07;90.13;-17.33;98.71;;
43385;Laerm;28988;48.042;7.584;2023-04-03T08:33:35;90.13;-16.02;98.60;;
43385;Laerm;28988;48.042;7.584;2023-04-03T08:36:01;90.13;-17.33;98.66;;
43385;Laerm;28988;48.042;7.584;2023-04-03T08:38:26;90.13;-14.85;98.60;;
43385;Laerm;28988;48.042;7.584;2023-04-03T08:41:05;90.13;-14.92;98.66;;
43385;Laerm;28988;48.042;7.584;2023-04-03T08:46:01;90.14;-21.54;98.90;;
43385;Laerm;28988;48.042;7.584;2023-04-03T08:48:33;90.15;-29.68;98.86;;
43385;Laerm;28988;48.042;7.584;2023-04-03T08:51:00;90.15;-27.53;98.83;;
43385;Laerm;28988;48.042;7.584;2023-04-03T08:53:32;90.15;-27.91;98.90;;
43385;Laerm;28988;48.042;7.584;2023-04-03T08:55:58;90.15;-23.32;98.81;;
43385;Laerm;28988;48.042;7.584;2023-04-03T08:58:29;90.15;-29.85;98.83;;
43385;Laerm;28988;48.042;7.584;2023-04-03T09:00:56;90.16;-21.92;98.94;;
43385;Laerm;28988;48.042;7.584;2023-04-03T09:03:23;90.18;-25.03;99.00;;
43385;Laerm;28988;48.042;7.584;2023-04-03T09:06:08;90.20;-21.21;99.02;;
43385;Laerm;28988;48.042;7.584;2023-04-03T09:08:43;90.19;-33.74;99.14;;
43385;Laerm;28988;48.042;7.584;2023-04-03T09:11:16;90.19;-44.06;99.22;;
43385;Laerm;28988;48.042;7.584;2023-04-03T09:13:49;90.16;-22.74;99.08;;
43385;Laerm;28988;48.042;7.584;2023-04-03T09:19:07;90.15;-21.54;99.12;;
43385;Laerm;28988;48.042;7.584;2023-04-03T09:21:36;90.15;-23.70;99.02;;
43385;Laerm;28988;48.042;7.584;2023-04-03T09:24:03;90.63;-33.74;99.24;;
43385;Laerm;28988;48.042;7.584;2023-04-03T09:26:31;98.38;-32.48;105.16;;
43385;Laerm;28988;48.042;7.584;2023-04-03T09:29:01;98.80;-12.89;105.37;;
43385;Laerm;28988;48.042;7.584;2023-04-03T09:31:29;94.40;-51.75;103.86;;
43385;Laerm;28988;48.042;7.584;2023-04-03T09:34:41;88.99;-41.19;101.16;;
43385;Laerm;28988;48.042;7.584;2023-04-03T09:36:49;86.29;-35.91;98.52;;
43385;Laerm;28988;48.042;7.584;2023-04-03T09:39:19;86.66;-37.61;97.77;;
43385;Laerm;28988;48.042;7.584;2023-04-03T09:42:13;87.32;-30.96;99.59;;
43385;Laerm;28988;48.042;7.584;2023-04-03T09:44:37;89.09;-66.51;101.27;;
43385;Laerm;28988;48.042;7.584;2023-04-03T09:47:17;93.33;-20.18;103.96;;
43385;Laerm;28988;48.042;7.584;2023-04-03T09:49:43;99.98;-19.68;105.37;;
43385;Laerm;28988;48.042;7.584;2023-04-03T09:52:23;99.49;-23.78;104.84;;
43385;Laerm;28988;48.042;7.584;2023-04-03T09:54:49;96.97;-20.06;103.16;;
43385;Laerm;28988;48.042;7.584;2023-04-03T09:57:14;94.52;-27.13;101.66;;
43385;Laerm;28988;48.042;7.584;2023-04-03T09:59:47;92.88;-28.36;100.89;;
43385;Laerm;28988;48.042;7.584;2023-04-03T10:02:23;91.79;-33.73;100.73;;
43385;Laerm;28988;48.042;7.584;2023-04-03T10:04:53;92.12;-34.35;100.40;;
43385;Laerm;28988;48.042;7.584;2023-04-03T10:07:29;92.08;-36.33;100.76;;
43385;Laerm;28988;48.042;7.584;2023-04-03T10:09:58;91.74;-23.41;100.34;;
43385;Laerm;28988;48.042;7.584;2023-04-03T10:12:23;91.55;-23.33;100.44;;
43385;Laerm;28988;48.042;7.584;2023-04-03T10:14:55;91.03;-13.68;99.79;;
43385;Laerm;28988;48.042;7.584;2023-04-03T10:27:11;100.31;-13.85;104.71;;
43385;Laerm;28988;48.042;7.584;2023-04-03T10:29:40;100.49;-43.95;104.75;;
43385;Laerm;28988;48.042;7.584;2023-04-03T10:34:50;97.43;-24.55;105.47;;
43385;Laerm;28988;48.042;7.584;2023-04-03T10:37:24;92.24;-48.65;103.12;;
43385;Laerm;28988;48.042;7.584;2023-04-03T10:39:57;87.02;-32.32;100.12;;
43385;Laerm;28988;48.042;7.584;2023-04-03T10:42:28;84.47;-25.91;95.67;;
43385;Laerm;28988;48.042;7.584;2023-04-03T10:45:08;84.35;-23.73;95.59;;
43385;Laerm;28988;48.042;7.584;2023-04-03T10:48:01;84.31;-23.73;95.70;;
43385;Laerm;28988;48.042;7.584;2023-04-03T10:50:48;84.31;-23.73;95.79;;
43385;Laerm;28988;48.042;7.584;2023-04-03T10:53:21;84.31;-23.73;95.47;;
43385;Laerm;28988;48.042;7.584;2023-04-03T10:58:33;84.31;-23.73;95.05;;
43385;Laerm;28988;48.042;7.584;2023-04-03T11:01:00;84.30;-57.68;95.53;;
43385;Laerm;28988;48.042;7.584;2023-04-03T11:03:31;84.32;-57.68;95.63;;
43385;Laerm;28988;48.042;7.584;2023-04-03T11:05:59;84.32;-28.29;95.95;;
43385;Laerm;28988;48.042;7.584;2023-04-03T11:08:31;84.37;-57.68;95.36;;
43385;Laerm;28988;48.042;7.584;2023-04-03T11:11:00;84.36;-23.73;96.29;;
43385;Laerm;28988;48.042;7.584;2023-04-03T11:15:51;84.45;-57.68;95.65;;
43385;Laerm;28988;48.042;7.584;2023-04-03T11:18:22;84.84;-47.13;95.40;;
43385;Laerm;28988;48.042;7.584;2023-04-03T11:20:56;85.96;-36.42;97.98;;
43385;Laerm;28988;48.042;7.584;2023-04-03T11:23:26;86.81;-52.22;97.27;;
43385;Laerm;28988;48.042;7.584;2023-04-03T11:25:54;87.99;-30.42;99.39;;
43385;Laerm;28988;48.042;7.584;2023-04-03T11:28:21;88.89;-30.72;99.70;;
43385;Laerm;28988;48.042;7.584;2023-04-03T11:30:52;89.51;-38.35;100.64;;
43385;Laerm;28988;48.042;7.584;2023-04-03T11:36:10;90.67;-19.73;102.08;;
43385;Laerm;28988;48.042;7.584;2023-04-03T11:38:37;91.77;-26.01;102.36;;
43385;Laerm;28988;48.042;7.584;2023-04-03T11:41:06;93.56;-28.49;103.31;;
43385;Laerm;28988;48.042;7.584;2023-04-03T11:43:32;94.15;-43.62;103.58;;
43385;Laerm;28988;48.042;7.584;2023-04-03T11:46:01;93.90;-49.10;103.11;;
43385;Laerm;28988;48.042;7.584;2023-04-03T11:50:53;93.19;-20.06;103.17;;
43385;Laerm;28988;48.042;7.584;2023-04-03T11:53:26;91.54;-28.37;102.94;;
43385;Laerm;28988;48.042;7.584;2023-04-03T11:55:53;91.67;-26.69;102.90;;
43385;Laerm;28988;48.042;7.584;2023-04-03T12:05:51;92.19;-26.58;103.85;;
43385;Laerm;28988;48.042;7.584;2023-04-03T12:16:22;85.25;-38.42;96.78;;
43385;Laerm;28988;48.042;7.584;2023-04-03T12:21:13;84.47;-31.91;95.98;;
43385;Laerm;28988;48.042;7.584;2023-04-03T12:26:26;84.42;-34.96;95.89;;
43385;Laerm;28988;48.042;7.584;2023-04-03T12:28:52;84.68;-53.36;96.82;;
43385;Laerm;28988;48.042;7.584;2023-04-03T12:31:18;85.53;-33.34;97.42;;
43385;Laerm;28988;48.042;7.584;2023-04-03T12:36:11;89.04;-31.82;100.87;;
43385;Laerm;28988;48.042;7.584;2023-04-03T12:38:46;89.97;-28.99;101.31;;
43385;Laerm;28988;48.042;7.584;2023-04-03T12:41:18;90.16;-21.45;101.22;;
43385;Laerm;28988;48.042;7.584;2023-04-03T12:46:28;91.18;-35.04;102.35;;
43385;Laerm;28988;48.042;7.584;2023-04-03T12:48:58;92.91;-22.77;102.96;;
43385;Laerm;28988;48.042;7.584;2023-04-03T12:51:37;94.33;-44.76;104.05;;
43385;Laerm;28988;48.042;7.584;2023-04-03T12:54:13;94.89;-20.22;103.69;;
43385;Laerm;28988;48.042;7.584;2023-04-03T12:56:40;95.41;-32.99;104.25;;
43385;Laerm;28988;48.042;7.584;2023-04-03T12:59:24;94.32;-24.54;103.48;;
43385;Laerm;28988;48.042;7.584;2023-04-03T13:04:19;90.73;-34.78;102.93;;
43385;Laerm;28988;48.042;7.584;2023-04-03T13:06:45;89.16;-35.42;101.12;;
43385;Laerm;28988;48.042;7.584;2023-04-03T13:09:27;88.80;-37.32;100.24;;
43385;Laerm;28988;48.042;7.584;2023-04-03T13:12:00;88.06;-59.49;99.18;;
43385;Laerm;28988;48.042;7.584;2023-04-03T13:14:26;88.09;-20.53;99.97;;
43385;Laerm;28988;48.042;7.584;2023-04-03T13:16:56;89.26;-21.09;100.86;;
43385;Laerm;28988;48.042;7.584;2023-04-03T13:19:22;89.87;-31.57;101.85;;
43385;Laerm;28988;48.042;7.584;2023-04-03T13:21:47;90.47;-40.25;101.59;;
43385;Laerm;28988;48.042;7.584;2023-04-03T13:24:14;91.67;-31.85;105.14;;
43385;Laerm;28988;48.042;7.584;2023-04-03T13:26:40;91.97;-30.09;104.26;;
43385;Laerm;28988;48.042;7.584;2023-04-03T13:29:07;92.43;-35.05;102.89;;
43385;Laerm;28988;48.042;7.584;2023-04-03T13:31:33;94.09;-22.95;103.81;;
43385;Laerm;28988;48.042;7.584;2023-04-03T13:34:09;96.87;-30.34;105.42;;
43385;Laerm;28988;48.042;7.584;2023-04-03T13:36:40;97.20;-46.86;105.56;;
43385;Laerm;28988;48.042;7.584;2023-04-03T13:39:17;95.88;-10.08;104.89;;
43385;Laerm;28988;48.042;7.584;2023-04-03T13:41:53;95.25;-51.82;103.71;;
43385;Laerm;28988;48.042;7.584;2023-04-03T13:46:57;94.67;-30.38;103.99;;
43385;Laerm;28988;48.042;7.584;2023-04-03T13:49:33;95.86;-21.71;104.59;;
43385;Laerm;28988;48.042;7.584;2023-04-03T13:51:59;97.85;-34.76;105.14;;
43385;Laerm;28988;48.042;7.584;2023-04-03T13:54:28;99.02;-28.39;105.19;;
43385;Laerm;28988;48.042;7.584;2023-04-03T13:56:55;98.20;-38.49;104.81;;
43385;Laerm;28988;48.042;7.584;2023-04-03T13:59:23;98.57;-27.05;105.31;;
43385;Laerm;28988;48.042;7.584;2023-04-03T14:01:53;99.36;-47.84;105.27;;
43385;Laerm;28988;48.042;7.584;2023-04-03T14:06:44;98.51;-35.11;105.15;;
43385;Laerm;28988;48.042;7.584;2023-04-03T14:09:11;100.12;-50.98;105.64;;
43385;Laerm;28988;48.042;7.584;2023-04-03T14:11:36;101.13;-33.75;105.41;;
43385;Laerm;28988;48.042;7.584;2023-04-03T14:14:05;101.21;-13.99;105.22;;
43385;Laerm;28988;48.042;7.584;2023-04-03T14:16:31;101.04;-12.39;104.98;;
43385;Laerm;28988;48.042;7.584;2023-04-03T14:18:59;100.07;-34.42;104.67;;
43385;Laerm;28988;48.042;7.584;2023-04-03T14:21:25;96.13;-27.95;103.03;;
43385;Laerm;28988;48.042;7.584;2023-04-03T14:23:50;92.79;-30.69;101.40;;
43385;Laerm;28988;48.042;7.584;2023-04-03T14:26:17;92.06;-21.31;100.30;;
43385;Laerm;28988;48.042;7.584;2023-04-03T14:28:43;92.36;-24.37;100.71;;
43385;Laerm;28988;48.042;7.584;2023-04-03T14:31:10;92.29;-20.83;100.50;;
43385;Laerm;28988;48.042;7.584;2023-04-03T14:33:36;92.02;-46.54;100.84;;
43385;Laerm;28988;48.042;7.584;2023-04-03T14:36:02;91.70;-22.84;100.50;;
43385;Laerm;28988;48.042;7.584;2023-04-03T14:38:30;91.51;-52.12;100.12;;
43385;Laerm;28988;48.042;7.584;2023-04-03T14:40:56;91.34;-45.20;100.50;;